sensor_id;sensor_type;location;lat;lon;timestamp;P1;durP1;ratioP1;P2;durP2;ratioP2
28762;SDS011;15918;51.270;6.522;2023-04-06T00:00:50;13.52;;;11.32;;
28762;SDS011;15918;51.270;6.522;2023-04-06T00:03:17;13.05;;;10.45;;
28762;SDS011;15918;51.270;6.522;2023-04-06T00:05:42;16.60;;;11.00;;
28762;SDS011;15918;51.270;6.522;2023-04-06T00:08:08;12.68;;;10.18;;
28762;SDS011;15918;51.270;6.522;2023-04-06T00:10:33;11.48;;;10.25;;
28762;SDS011;15918;51.270;6.522;2023-04-06T00:12:59;12.35;;;10.40;;
28762;SDS011;15918;51.270;6.522;2023-04-06T00:15:25;14.55;;;10.27;;
28762;SDS011;15918;51.270;6.522;2023-04-06T00:17:51;13.35;;;9.80;;
28762;SDS011;15918;51.270;6.522;2023-04-06T00:20:17;14.77;;;10.85;;
28762;SDS011;15918;51.270;6.522;2023-04-06T00:22:43;13.65;;;10.48;;
28762;SDS011;15918;51.270;6.522;2023-04-06T00:25:09;14.45;;;10.57;;
28762;SDS011;15918;51.270;6.522;2023-04-06T00:27:36;13.70;;;11.32;;
28762;SDS011;15918;51.270;6.522;2023-04-06T00:30:05;12.52;;;9.40;;
28762;SDS011;15918;51.270;6.522;2023-04-06T00:32:31;12.57;;;9.77;;
28762;SDS011;15918;51.270;6.522;2023-04-06T00:34:57;14.43;;;10.90;;
28762;SDS011;15918;51.270;6.522;2023-04-06T00:37:23;15.25;;;10.05;;
28762;SDS011;15918;51.270;6.522;2023-04-06T00:39:49;12.00;;;10.13;;
28762;SDS011;15918;51.270;6.522;2023-04-06T00:42:16;12.60;;;9.93;;
28762;SDS011;15918;51.270;6.522;2023-04-06T00:44:50;12.85;;;9.43;;
28762;SDS011;15918;51.270;6.522;2023-04-06T00:47:20;14.57;;;10.70;;
28762;SDS011;15918;51.270;6.522;2023-04-06T00:49:46;13.63;;;9.95;;
28762;SDS011;15918;51.270;6.522;2023-04-06T00:52:12;13.50;;;10.10;;
28762;SDS011;15918;51.270;6.522;2023-04-06T00:54:37;12.60;;;10.43;;
28762;SDS011;15918;51.270;6.522;2023-04-06T00:57:03;12.55;;;9.88;;
28762;SDS011;15918;51.270;6.522;2023-04-06T00:59:29;12.68;;;9.80;;
28762;SDS011;15918;51.270;6.522;2023-04-06T01:01:55;15.02;;;10.63;;
28762;SDS011;15918;51.270;6.522;2023-04-06T01:04:21;15.65;;;10.32;;
28762;SDS011;15918;51.270;6.522;2023-04-06T01:06:49;17.02;;;10.25;;
28762;SDS011;15918;51.270;6.522;2023-04-06T01:09:15;14.07;;;9.82;;
28762;SDS011;15918;51.270;6.522;2023-04-06T01:11:44;13.20;;;10.38;;
28762;SDS011;15918;51.270;6.522;2023-04-06T01:14:09;15.20;;;9.98;;
28762;SDS011;15918;51.270;6.522;2023-04-06T01:16:35;14.05;;;10.90;;
28762;SDS011;15918;51.270;6.522;2023-04-06T01:19:06;11.43;;;9.30;;
28762;SDS011;15918;51.270;6.522;2023-04-06T01:21:34;12.30;;;10.07;;
28762;SDS011;15918;51.270;6.522;2023-04-06T01:24:00;14.77;;;10.52;;
28762;SDS011;15918;51.270;6.522;2023-04-06T01:26:26;13.98;;;10.65;;
28762;SDS011;15918;51.270;6.522;2023-04-06T01:28:52;13.00;;;10.75;;
28762;SDS011;15918;51.270;6.522;2023-04-06T01:31:17;13.75;;;10.23;;
28762;SDS011;15918;51.270;6.522;2023-04-06T01:33:43;11.63;;;9.73;;
28762;SDS011;15918;51.270;6.522;2023-04-06T01:36:09;14.60;;;10.32;;
28762;SDS011;15918;51.270;6.522;2023-04-06T01:38:34;14.25;;;10.57;;
28762;SDS011;15918;51.270;6.522;2023-04-06T01:41:00;15.05;;;10.90;;
28762;SDS011;15918;51.270;6.522;2023-04-06T01:43:26;16.33;;;11.13;;
28762;SDS011;15918;51.270;6.522;2023-04-06T01:45:51;14.80;;;10.88;;
28762;SDS011;15918;51.270;6.522;2023-04-06T01:48:17;14.60;;;10.63;;
28762;SDS011;15918;51.270;6.522;2023-04-06T01:50:42;12.93;;;10.75;;
28762;SDS011;15918;51.270;6.522;2023-04-06T01:53:08;15.25;;;11.05;;
28762;SDS011;15918;51.270;6.522;2023-04-06T01:55:33;14.80;;;11.90;;
28762;SDS011;15918;51.270;6.522;2023-04-06T01:57:59;14.40;;;10.80;;
28762;SDS011;15918;51.270;6.522;2023-04-06T02:00:25;15.05;;;11.15;;
28762;SDS011;15918;51.270;6.522;2023-04-06T02:02:50;15.30;;;11.20;;
28762;SDS011;15918;51.270;6.522;2023-04-06T02:05:16;17.27;;;11.57;;
28762;SDS011;15918;51.270;6.522;2023-04-06T02:07:41;14.40;;;11.25;;
28762;SDS011;15918;51.270;6.522;2023-04-06T02:10:11;14.90;;;11.48;;
28762;SDS011;15918;51.270;6.522;2023-04-06T02:12:37;15.40;;;11.68;;
28762;SDS011;15918;51.270;6.522;2023-04-06T02:15:03;13.40;;;10.88;;
28762;SDS011;15918;51.270;6.522;2023-04-06T02:17:29;18.45;;;12.70;;
28762;SDS011;15918;51.270;6.522;2023-04-06T02:19:55;15.45;;;12.27;;
28762;SDS011;15918;51.270;6.522;2023-04-06T02:22:20;15.15;;;12.00;;
28762;SDS011;15918;51.270;6.522;2023-04-06T02:24:46;17.40;;;13.27;;
28762;SDS011;15918;51.270;6.522;2023-04-06T02:27:11;21.02;;;13.70;;
28762;SDS011;15918;51.270;6.522;2023-04-06T02:29:38;17.25;;;12.68;;
28762;SDS011;15918;51.270;6.522;2023-04-06T02:32:04;15.88;;;12.57;;
28762;SDS011;15918;51.270;6.522;2023-04-06T02:34:30;19.13;;;14.23;;
28762;SDS011;15918;51.270;6.522;2023-04-06T02:36:55;17.25;;;13.18;;
28762;SDS011;15918;51.270;6.522;2023-04-06T02:39:21;17.63;;;14.45;;
28762;SDS011;15918;51.270;6.522;2023-04-06T02:41:47;21.13;;;13.55;;
28762;SDS011;15918;51.270;6.522;2023-04-06T02:44:13;18.20;;;14.45;;
28762;SDS011;15918;51.270;6.522;2023-04-06T02:46:38;18.95;;;14.43;;
28762;SDS011;15918;51.270;6.522;2023-04-06T02:49:04;19.73;;;14.00;;
28762;SDS011;15918;51.270;6.522;2023-04-06T02:51:30;17.73;;;14.25;;
28762;SDS011;15918;51.270;6.522;2023-04-06T02:53:56;18.20;;;14.82;;
28762;SDS011;15918;51.270;6.522;2023-04-06T02:56:21;17.75;;;13.82;;
28762;SDS011;15918;51.270;6.522;2023-04-06T02:58:47;19.63;;;15.10;;
28762;SDS011;15918;51.270;6.522;2023-04-06T03:01:13;19.27;;;14.85;;
28762;SDS011;15918;51.270;6.522;2023-04-06T03:03:39;16.83;;;14.40;;
28762;SDS011;15918;51.270;6.522;2023-04-06T03:06:05;18.95;;;14.63;;
28762;SDS011;15918;51.270;6.522;2023-04-06T03:08:31;20.30;;;14.60;;
28762;SDS011;15918;51.270;6.522;2023-04-06T03:10:56;21.25;;;15.20;;
28762;SDS011;15918;51.270;6.522;2023-04-06T03:13:22;18.73;;;14.68;;
28762;SDS011;15918;51.270;6.522;2023-04-06T03:15:48;20.00;;;15.02;;
28762;SDS011;15918;51.270;6.522;2023-04-06T03:18:13;18.98;;;15.02;;
28762;SDS011;15918;51.270;6.522;2023-04-06T03:20:39;20.73;;;15.32;;
28762;SDS011;15918;51.270;6.522;2023-04-06T03:23:05;20.33;;;14.65;;
28762;SDS011;15918;51.270;6.522;2023-04-06T03:25:30;19.80;;;15.40;;
28762;SDS011;15918;51.270;6.522;2023-04-06T03:27:56;19.50;;;14.98;;
28762;SDS011;15918;51.270;6.522;2023-04-06T03:30:22;22.52;;;16.13;;
28762;SDS011;15918;51.270;6.522;2023-04-06T03:32:47;21.52;;;15.75;;
28762;SDS011;15918;51.270;6.522;2023-04-06T03:35:13;21.15;;;14.88;;
28762;SDS011;15918;51.270;6.522;2023-04-06T03:37:39;26.48;;;16.85;;
28762;SDS011;15918;51.270;6.522;2023-04-06T03:40:05;22.08;;;15.57;;
28762;SDS011;15918;51.270;6.522;2023-04-06T03:42:31;20.23;;;15.63;;
28762;SDS011;15918;51.270;6.522;2023-04-06T03:44:57;23.23;;;15.63;;
28762;SDS011;15918;51.270;6.522;2023-04-06T03:47:23;25.40;;;16.73;;
28762;SDS011;15918;51.270;6.522;2023-04-06T03:49:48;26.48;;;16.75;;
28762;SDS011;15918;51.270;6.522;2023-04-06T03:52:14;23.15;;;16.63;;
28762;SDS011;15918;51.270;6.522;2023-04-06T03:54:40;23.75;;;15.65;;
28762;SDS011;15918;51.270;6.522;2023-04-06T03:57:05;21.10;;;15.95;;
28762;SDS011;15918;51.270;6.522;2023-04-06T03:59:31;22.88;;;16.45;;
28762;SDS011;15918;51.270;6.522;2023-04-06T04:01:57;24.02;;;15.27;;
28762;SDS011;15918;51.270;6.522;2023-04-06T04:04:22;19.92;;;15.35;;
28762;SDS011;15918;51.270;6.522;2023-04-06T04:06:48;21.27;;;15.20;;
28762;SDS011;15918;51.270;6.522;2023-04-06T04:09:13;19.67;;;15.65;;
28762;SDS011;15918;51.270;6.522;2023-04-06T04:11:39;28.45;;;15.95;;
28762;SDS011;15918;51.270;6.522;2023-04-06T04:14:05;22.88;;;16.38;;
28762;SDS011;15918;51.270;6.522;2023-04-06T04:16:30;24.73;;;16.13;;
28762;SDS011;15918;51.270;6.522;2023-04-06T04:18:56;25.88;;;15.35;;
28762;SDS011;15918;51.270;6.522;2023-04-06T04:21:23;21.92;;;16.52;;
28762;SDS011;15918;51.270;6.522;2023-04-06T04:23:48;23.15;;;15.55;;
28762;SDS011;15918;51.270;6.522;2023-04-06T04:26:14;23.05;;;16.33;;
28762;SDS011;15918;51.270;6.522;2023-04-06T04:28:40;29.10;;;17.27;;
28762;SDS011;15918;51.270;6.522;2023-04-06T04:31:05;22.77;;;15.80;;
28762;SDS011;15918;51.270;6.522;2023-04-06T04:33:31;22.80;;;16.30;;
28762;SDS011;15918;51.270;6.522;2023-04-06T04:35:57;20.95;;;15.50;;
28762;SDS011;15918;51.270;6.522;2023-04-06T04:38:22;25.73;;;16.95;;
28762;SDS011;15918;51.270;6.522;2023-04-06T04:40:48;20.85;;;16.33;;
28762;SDS011;15918;51.270;6.522;2023-04-06T04:43:13;20.42;;;15.00;;
28762;SDS011;15918;51.270;6.522;2023-04-06T04:45:39;22.17;;;15.45;;
28762;SDS011;15918;51.270;6.522;2023-04-06T04:48:05;27.80;;;16.08;;
28762;SDS011;15918;51.270;6.522;2023-04-06T04:50:31;26.80;;;17.45;;
28762;SDS011;15918;51.270;6.522;2023-04-06T04:52:57;22.38;;;15.88;;
28762;SDS011;15918;51.270;6.522;2023-04-06T04:55:23;23.85;;;15.43;;
28762;SDS011;15918;51.270;6.522;2023-04-06T04:57:48;21.73;;;15.73;;
28762;SDS011;15918;51.270;6.522;2023-04-06T05:00:14;20.67;;;15.35;;
28762;SDS011;15918;51.270;6.522;2023-04-06T05:02:40;22.25;;;15.88;;
28762;SDS011;15918;51.270;6.522;2023-04-06T05:05:05;20.17;;;15.15;;
28762;SDS011;15918;51.270;6.522;2023-04-06T05:07:31;21.52;;;15.35;;
28762;SDS011;15918;51.270;6.522;2023-04-06T05:09:58;24.42;;;16.10;;
28762;SDS011;15918;51.270;6.522;2023-04-06T05:12:25;19.10;;;15.13;;
28762;SDS011;15918;51.270;6.522;2023-04-06T05:14:52;20.58;;;15.32;;
28762;SDS011;15918;51.270;6.522;2023-04-06T05:17:19;22.38;;;15.73;;
28762;SDS011;15918;51.270;6.522;2023-04-06T05:19:47;23.10;;;14.90;;
28762;SDS011;15918;51.270;6.522;2023-04-06T05:22:13;24.13;;;16.55;;
28762;SDS011;15918;51.270;6.522;2023-04-06T05:24:42;19.38;;;14.13;;
28762;SDS011;15918;51.270;6.522;2023-04-06T05:27:08;20.40;;;15.02;;
28762;SDS011;15918;51.270;6.522;2023-04-06T05:29:34;21.77;;;14.70;;
28762;SDS011;15918;51.270;6.522;2023-04-06T05:32:00;24.63;;;16.42;;
28762;SDS011;15918;51.270;6.522;2023-04-06T05:34:26;21.48;;;15.65;;
28762;SDS011;15918;51.270;6.522;2023-04-06T05:36:52;20.27;;;15.02;;
28762;SDS011;15918;51.270;6.522;2023-04-06T05:39:18;20.02;;;14.90;;
28762;SDS011;15918;51.270;6.522;2023-04-06T05:41:43;25.42;;;15.65;;
28762;SDS011;15918;51.270;6.522;2023-04-06T05:44:09;20.42;;;14.23;;
28762;SDS011;15918;51.270;6.522;2023-04-06T05:46:35;21.00;;;14.60;;
28762;SDS011;15918;51.270;6.522;2023-04-06T05:49:00;20.90;;;14.20;;
28762;SDS011;15918;51.270;6.522;2023-04-06T05:51:26;22.38;;;14.93;;
28762;SDS011;15918;51.270;6.522;2023-04-06T05:53:52;17.63;;;14.27;;
28762;SDS011;15918;51.270;6.522;2023-04-06T05:56:18;20.52;;;14.18;;
28762;SDS011;15918;51.270;6.522;2023-04-06T05:58:43;19.33;;;13.82;;
28762;SDS011;15918;51.270;6.522;2023-04-06T06:01:09;16.50;;;13.05;;
28762;SDS011;15918;51.270;6.522;2023-04-06T06:03:35;17.80;;;13.15;;
28762;SDS011;15918;51.270;6.522;2023-04-06T06:06:04;20.17;;;13.88;;
28762;SDS011;15918;51.270;6.522;2023-04-06T06:08:30;20.63;;;14.02;;
28762;SDS011;15918;51.270;6.522;2023-04-06T06:10:56;17.77;;;13.98;;
28762;SDS011;15918;51.270;6.522;2023-04-06T06:13:22;21.13;;;14.00;;
28762;SDS011;15918;51.270;6.522;2023-04-06T06:15:48;17.83;;;13.38;;
28762;SDS011;15918;51.270;6.522;2023-04-06T06:18:14;16.67;;;13.27;;
28762;SDS011;15918;51.270;6.522;2023-04-06T06:20:39;16.90;;;13.68;;
28762;SDS011;15918;51.270;6.522;2023-04-06T06:23:05;16.42;;;13.27;;
28762;SDS011;15918;51.270;6.522;2023-04-06T06:25:32;18.02;;;12.60;;
28762;SDS011;15918;51.270;6.522;2023-04-06T06:27:58;17.75;;;13.23;;
28762;SDS011;15918;51.270;6.522;2023-04-06T06:30:24;19.20;;;13.68;;
28762;SDS011;15918;51.270;6.522;2023-04-06T06:32:51;16.60;;;13.13;;
28762;SDS011;15918;51.270;6.522;2023-04-06T06:35:16;15.63;;;13.48;;
28762;SDS011;15918;51.270;6.522;2023-04-06T06:37:42;20.02;;;13.38;;
28762;SDS011;15918;51.270;6.522;2023-04-06T06:40:11;18.50;;;14.38;;
28762;SDS011;15918;51.270;6.522;2023-04-06T06:42:38;22.15;;;14.15;;
28762;SDS011;15918;51.270;6.522;2023-04-06T06:45:05;18.52;;;14.00;;
28762;SDS011;15918;51.270;6.522;2023-04-06T06:47:31;17.13;;;12.88;;
28762;SDS011;15918;51.270;6.522;2023-04-06T06:49:57;22.73;;;13.27;;
28762;SDS011;15918;51.270;6.522;2023-04-06T06:52:23;19.80;;;14.40;;
28762;SDS011;15918;51.270;6.522;2023-04-06T06:54:49;15.93;;;12.52;;
28762;SDS011;15918;51.270;6.522;2023-04-06T06:57:14;17.92;;;12.32;;
28762;SDS011;15918;51.270;6.522;2023-04-06T06:59:40;22.77;;;14.13;;
28762;SDS011;15918;51.270;6.522;2023-04-06T07:02:06;18.02;;;12.68;;
28762;SDS011;15918;51.270;6.522;2023-04-06T07:04:31;15.00;;;13.15;;
28762;SDS011;15918;51.270;6.522;2023-04-06T07:06:57;20.98;;;12.68;;
28762;SDS011;15918;51.270;6.522;2023-04-06T07:09:23;16.85;;;12.77;;
28762;SDS011;15918;51.270;6.522;2023-04-06T07:11:49;18.58;;;13.35;;
28762;SDS011;15918;51.270;6.522;2023-04-06T07:14:15;19.85;;;14.48;;
28762;SDS011;15918;51.270;6.522;2023-04-06T07:16:41;23.00;;;12.80;;
28762;SDS011;15918;51.270;6.522;2023-04-06T07:19:06;19.95;;;14.63;;
28762;SDS011;15918;51.270;6.522;2023-04-06T07:21:33;21.80;;;14.45;;
28762;SDS011;15918;51.270;6.522;2023-04-06T07:23:59;21.20;;;13.63;;
28762;SDS011;15918;51.270;6.522;2023-04-06T07:26:24;18.00;;;12.52;;
28762;SDS011;15918;51.270;6.522;2023-04-06T07:28:50;19.85;;;13.18;;
28762;SDS011;15918;51.270;6.522;2023-04-06T07:31:16;19.00;;;13.43;;
28762;SDS011;15918;51.270;6.522;2023-04-06T07:33:41;15.05;;;11.88;;
28762;SDS011;15918;51.270;6.522;2023-04-06T07:36:07;19.30;;;13.95;;
28762;SDS011;15918;51.270;6.522;2023-04-06T07:38:32;19.20;;;13.13;;
28762;SDS011;15918;51.270;6.522;2023-04-06T07:40:58;19.73;;;13.93;;
28762;SDS011;15918;51.270;6.522;2023-04-06T07:43:24;19.30;;;13.52;;
28762;SDS011;15918;51.270;6.522;2023-04-06T07:45:50;15.85;;;13.40;;
28762;SDS011;15918;51.270;6.522;2023-04-06T07:48:15;18.27;;;12.70;;
28762;SDS011;15918;51.270;6.522;2023-04-06T07:50:41;18.50;;;12.05;;
28762;SDS011;15918;51.270;6.522;2023-04-06T07:53:07;19.05;;;13.55;;
28762;SDS011;15918;51.270;6.522;2023-04-06T07:55:34;18.63;;;12.38;;
28762;SDS011;15918;51.270;6.522;2023-04-06T07:57:59;17.38;;;12.68;;
28762;SDS011;15918;51.270;6.522;2023-04-06T08:00:25;18.88;;;13.18;;
28762;SDS011;15918;51.270;6.522;2023-04-06T08:02:50;21.90;;;13.38;;
28762;SDS011;15918;51.270;6.522;2023-04-06T08:05:16;16.52;;;13.20;;
28762;SDS011;15918;51.270;6.522;2023-04-06T08:07:42;17.27;;;13.25;;
28762;SDS011;15918;51.270;6.522;2023-04-06T08:10:08;22.85;;;13.52;;
28762;SDS011;15918;51.270;6.522;2023-04-06T08:12:34;17.38;;;12.93;;
28762;SDS011;15918;51.270;6.522;2023-04-06T08:15:00;18.40;;;13.38;;
28762;SDS011;15918;51.270;6.522;2023-04-06T08:17:27;20.92;;;13.18;;
28762;SDS011;15918;51.270;6.522;2023-04-06T08:19:55;22.00;;;14.02;;
28762;SDS011;15918;51.270;6.522;2023-04-06T08:22:20;21.48;;;13.15;;
28762;SDS011;15918;51.270;6.522;2023-04-06T08:24:46;17.98;;;13.27;;
28762;SDS011;15918;51.270;6.522;2023-04-06T08:27:11;19.77;;;13.90;;
28762;SDS011;15918;51.270;6.522;2023-04-06T08:29:38;18.63;;;13.80;;
28762;SDS011;15918;51.270;6.522;2023-04-06T08:32:04;18.10;;;14.07;;
28762;SDS011;15918;51.270;6.522;2023-04-06T08:34:32;24.65;;;14.65;;
28762;SDS011;15918;51.270;6.522;2023-04-06T08:36:58;21.33;;;13.75;;
28762;SDS011;15918;51.270;6.522;2023-04-06T08:39:23;25.50;;;14.68;;
28762;SDS011;15918;51.270;6.522;2023-04-06T08:41:51;19.20;;;14.48;;
28762;SDS011;15918;51.270;6.522;2023-04-06T08:44:17;24.88;;;14.23;;
28762;SDS011;15918;51.270;6.522;2023-04-06T08:46:43;20.38;;;14.30;;
28762;SDS011;15918;51.270;6.522;2023-04-06T08:49:08;20.88;;;14.93;;
28762;SDS011;15918;51.270;6.522;2023-04-06T08:51:34;21.95;;;15.05;;
28762;SDS011;15918;51.270;6.522;2023-04-06T08:54:02;23.08;;;14.77;;
28762;SDS011;15918;51.270;6.522;2023-04-06T08:56:28;21.95;;;15.00;;
28762;SDS011;15918;51.270;6.522;2023-04-06T08:58:54;21.70;;;15.38;;
28762;SDS011;15918;51.270;6.522;2023-04-06T09:01:21;21.90;;;14.75;;
28762;SDS011;15918;51.270;6.522;2023-04-06T09:03:50;25.60;;;15.45;;
28762;SDS011;15918;51.270;6.522;2023-04-06T09:06:19;21.00;;;14.15;;
28762;SDS011;15918;51.270;6.522;2023-04-06T09:08:45;24.25;;;14.70;;
28762;SDS011;15918;51.270;6.522;2023-04-06T09:11:11;21.48;;;14.63;;
28762;SDS011;15918;51.270;6.522;2023-04-06T09:13:53;23.00;;;14.90;;
28762;SDS011;15918;51.270;6.522;2023-04-06T09:16:19;21.23;;;14.88;;
28762;SDS011;15918;51.270;6.522;2023-04-06T09:18:46;18.75;;;15.45;;
28762;SDS011;15918;51.270;6.522;2023-04-06T09:21:12;22.92;;;15.15;;
28762;SDS011;15918;51.270;6.522;2023-04-06T09:23:41;20.30;;;14.80;;
28762;SDS011;15918;51.270;6.522;2023-04-06T09:26:13;23.38;;;15.07;;
28762;SDS011;15918;51.270;6.522;2023-04-06T09:28:41;20.92;;;15.23;;
28762;SDS011;15918;51.270;6.522;2023-04-06T09:31:13;19.75;;;14.68;;
28762;SDS011;15918;51.270;6.522;2023-04-06T09:33:40;20.70;;;15.05;;
28762;SDS011;15918;51.270;6.522;2023-04-06T09:36:07;22.55;;;14.88;;
28762;SDS011;15918;51.270;6.522;2023-04-06T09:38:37;24.08;;;15.65;;
28762;SDS011;15918;51.270;6.522;2023-04-06T09:41:03;23.02;;;15.32;;
28762;SDS011;15918;51.270;6.522;2023-04-06T09:43:29;21.55;;;14.63;;
28762;SDS011;15918;51.270;6.522;2023-04-06T09:45:55;23.70;;;15.57;;
28762;SDS011;15918;51.270;6.522;2023-04-06T09:48:22;22.33;;;14.73;;
28762;SDS011;15918;51.270;6.522;2023-04-06T09:50:50;26.30;;;15.32;;
28762;SDS011;15918;51.270;6.522;2023-04-06T09:53:23;22.30;;;14.27;;
28762;SDS011;15918;51.270;6.522;2023-04-06T09:55:55;24.35;;;14.98;;
28762;SDS011;15918;51.270;6.522;2023-04-06T09:58:25;26.33;;;15.98;;
28762;SDS011;15918;51.270;6.522;2023-04-06T10:01:00;24.48;;;16.10;;
28762;SDS011;15918;51.270;6.522;2023-04-06T10:03:32;21.95;;;16.13;;
28762;SDS011;15918;51.270;6.522;2023-04-06T10:06:11;25.30;;;16.52;;
28762;SDS011;15918;51.270;6.522;2023-04-06T10:08:40;25.08;;;15.95;;
28762;SDS011;15918;51.270;6.522;2023-04-06T10:11:07;21.90;;;16.33;;
28762;SDS011;15918;51.270;6.522;2023-04-06T10:13:34;26.30;;;16.27;;
28762;SDS011;15918;51.270;6.522;2023-04-06T10:16:00;28.25;;;16.25;;
28762;SDS011;15918;51.270;6.522;2023-04-06T10:18:28;25.90;;;16.35;;
28762;SDS011;15918;51.270;6.522;2023-04-06T10:21:05;25.95;;;16.88;;
28762;SDS011;15918;51.270;6.522;2023-04-06T10:23:36;25.35;;;16.20;;
28762;SDS011;15918;51.270;6.522;2023-04-06T10:26:02;26.60;;;17.42;;
28762;SDS011;15918;51.270;6.522;2023-04-06T10:28:33;24.35;;;16.02;;
28762;SDS011;15918;51.270;6.522;2023-04-06T10:31:01;27.63;;;17.05;;
28762;SDS011;15918;51.270;6.522;2023-04-06T10:33:30;28.88;;;16.92;;
28762;SDS011;15918;51.270;6.522;2023-04-06T10:35:56;24.55;;;16.15;;
28762;SDS011;15918;51.270;6.522;2023-04-06T10:38:43;23.98;;;17.10;;
28762;SDS011;15918;51.270;6.522;2023-04-06T10:41:09;28.43;;;17.10;;
28762;SDS011;15918;51.270;6.522;2023-04-06T10:43:36;27.67;;;17.75;;
28762;SDS011;15918;51.270;6.522;2023-04-06T10:46:04;26.98;;;16.33;;
28762;SDS011;15918;51.270;6.522;2023-04-06T10:48:37;29.55;;;17.10;;
28762;SDS011;15918;51.270;6.522;2023-04-06T10:51:07;29.77;;;16.15;;
28762;SDS011;15918;51.270;6.522;2023-04-06T10:53:38;29.50;;;16.40;;
28762;SDS011;15918;51.270;6.522;2023-04-06T10:56:08;28.05;;;15.93;;
28762;SDS011;15918;51.270;6.522;2023-04-06T10:58:38;25.50;;;16.35;;
28762;SDS011;15918;51.270;6.522;2023-04-06T11:01:10;28.73;;;16.48;;
28762;SDS011;15918;51.270;6.522;2023-04-06T11:03:43;30.25;;;17.15;;
28762;SDS011;15918;51.270;6.522;2023-04-06T11:06:09;30.70;;;17.83;;
28762;SDS011;15918;51.270;6.522;2023-04-06T11:08:35;29.08;;;17.00;;
28762;SDS011;15918;51.270;6.522;2023-04-06T11:11:11;30.85;;;17.52;;
28762;SDS011;15918;51.270;6.522;2023-04-06T11:13:53;30.58;;;16.80;;
28762;SDS011;15918;51.270;6.522;2023-04-06T11:16:26;31.58;;;16.35;;
28762;SDS011;15918;51.270;6.522;2023-04-06T11:18:55;27.13;;;16.88;;
28762;SDS011;15918;51.270;6.522;2023-04-06T11:24:05;25.33;;;17.85;;
28762;SDS011;15918;51.270;6.522;2023-04-06T11:26:44;28.33;;;18.10;;
28762;SDS011;15918;51.270;6.522;2023-04-06T11:29:16;28.48;;;17.00;;
28762;SDS011;15918;51.270;6.522;2023-04-06T11:31:47;26.33;;;17.63;;
28762;SDS011;15918;51.270;6.522;2023-04-06T11:34:18;29.30;;;18.50;;
28762;SDS011;15918;51.270;6.522;2023-04-06T11:36:45;26.45;;;18.45;;
28762;SDS011;15918;51.270;6.522;2023-04-06T11:39:13;30.42;;;17.85;;
28762;SDS011;15918;51.270;6.522;2023-04-06T11:41:42;33.20;;;17.52;;
28762;SDS011;15918;51.270;6.522;2023-04-06T11:44:13;26.85;;;17.55;;
28762;SDS011;15918;51.270;6.522;2023-04-06T11:46:38;26.80;;;17.23;;
28762;SDS011;15918;51.270;6.522;2023-04-06T11:49:04;23.50;;;16.38;;
28762;SDS011;15918;51.270;6.522;2023-04-06T11:51:30;23.45;;;15.07;;
28762;SDS011;15918;51.270;6.522;2023-04-06T11:54:01;23.15;;;15.38;;
28762;SDS011;15918;51.270;6.522;2023-04-06T11:56:28;19.30;;;12.77;;
28762;SDS011;15918;51.270;6.522;2023-04-06T11:58:54;19.90;;;12.77;;
28762;SDS011;15918;51.270;6.522;2023-04-06T12:01:21;19.15;;;13.13;;
28762;SDS011;15918;51.270;6.522;2023-04-06T12:03:47;21.67;;;12.48;;
28762;SDS011;15918;51.270;6.522;2023-04-06T12:06:13;19.98;;;13.00;;
28762;SDS011;15918;51.270;6.522;2023-04-06T12:08:39;18.15;;;11.73;;
28762;SDS011;15918;51.270;6.522;2023-04-06T12:11:05;22.58;;;13.02;;
28762;SDS011;15918;51.270;6.522;2023-04-06T12:13:31;17.25;;;11.68;;
28762;SDS011;15918;51.270;6.522;2023-04-06T12:15:56;17.58;;;11.57;;
28762;SDS011;15918;51.270;6.522;2023-04-06T12:18:22;17.42;;;11.35;;
28762;SDS011;15918;51.270;6.522;2023-04-06T12:20:47;17.38;;;10.15;;
28762;SDS011;15918;51.270;6.522;2023-04-06T12:23:13;14.13;;;10.13;;
28762;SDS011;15918;51.270;6.522;2023-04-06T12:25:39;17.10;;;10.00;;
28762;SDS011;15918;51.270;6.522;2023-04-06T12:28:05;15.23;;;9.35;;
28762;SDS011;15918;51.270;6.522;2023-04-06T12:30:31;11.85;;;8.98;;
28762;SDS011;15918;51.270;6.522;2023-04-06T12:32:57;14.38;;;8.65;;
28762;SDS011;15918;51.270;6.522;2023-04-06T12:35:22;15.20;;;9.05;;
28762;SDS011;15918;51.270;6.522;2023-04-06T12:37:48;14.23;;;9.85;;
28762;SDS011;15918;51.270;6.522;2023-04-06T12:40:13;15.05;;;9.48;;
28762;SDS011;15918;51.270;6.522;2023-04-06T12:42:40;19.77;;;10.75;;
28762;SDS011;15918;51.270;6.522;2023-04-06T12:45:06;12.55;;;8.80;;
28762;SDS011;15918;51.270;6.522;2023-04-06T12:47:35;15.75;;;9.55;;
28762;SDS011;15918;51.270;6.522;2023-04-06T12:50:01;12.30;;;9.02;;
28762;SDS011;15918;51.270;6.522;2023-04-06T12:52:27;14.23;;;8.18;;
28762;SDS011;15918;51.270;6.522;2023-04-06T12:54:55;14.50;;;8.52;;
28762;SDS011;15918;51.270;6.522;2023-04-06T12:57:21;11.38;;;8.43;;
28762;SDS011;15918;51.270;6.522;2023-04-06T12:59:47;12.20;;;8.55;;
28762;SDS011;15918;51.270;6.522;2023-04-06T13:02:12;11.93;;;8.15;;
28762;SDS011;15918;51.270;6.522;2023-04-06T13:04:38;12.93;;;8.30;;
28762;SDS011;15918;51.270;6.522;2023-04-06T13:07:04;10.27;;;7.28;;
28762;SDS011;15918;51.270;6.522;2023-04-06T13:09:30;11.93;;;8.25;;
28762;SDS011;15918;51.270;6.522;2023-04-06T13:11:55;10.73;;;6.93;;
28762;SDS011;15918;51.270;6.522;2023-04-06T13:14:21;11.73;;;7.93;;
28762;SDS011;15918;51.270;6.522;2023-04-06T13:16:47;12.07;;;8.80;;
28762;SDS011;15918;51.270;6.522;2023-04-06T13:19:12;10.07;;;7.80;;
28762;SDS011;15918;51.270;6.522;2023-04-06T13:21:38;11.27;;;7.22;;
28762;SDS011;15918;51.270;6.522;2023-04-06T13:24:04;11.00;;;8.38;;
28762;SDS011;15918;51.270;6.522;2023-04-06T13:26:30;11.23;;;7.95;;
28762;SDS011;15918;51.270;6.522;2023-04-06T13:28:56;12.32;;;8.32;;
28762;SDS011;15918;51.270;6.522;2023-04-06T13:31:22;13.65;;;8.68;;
28762;SDS011;15918;51.270;6.522;2023-04-06T13:33:47;12.07;;;8.68;;
28762;SDS011;15918;51.270;6.522;2023-04-06T13:36:13;15.60;;;9.68;;
28762;SDS011;15918;51.270;6.522;2023-04-06T13:38:38;11.43;;;8.90;;
28762;SDS011;15918;51.270;6.522;2023-04-06T13:41:04;13.90;;;8.95;;
28762;SDS011;15918;51.270;6.522;2023-04-06T13:43:30;15.35;;;9.38;;
28762;SDS011;15918;51.270;6.522;2023-04-06T13:45:56;13.75;;;9.40;;
28762;SDS011;15918;51.270;6.522;2023-04-06T13:48:24;12.27;;;8.55;;
28762;SDS011;15918;51.270;6.522;2023-04-06T13:50:51;13.75;;;9.57;;
28762;SDS011;15918;51.270;6.522;2023-04-06T13:53:17;11.15;;;8.77;;
28762;SDS011;15918;51.270;6.522;2023-04-06T13:55:43;11.07;;;8.70;;
28762;SDS011;15918;51.270;6.522;2023-04-06T13:58:09;14.88;;;9.30;;
28762;SDS011;15918;51.270;6.522;2023-04-06T14:00:34;12.23;;;8.73;;
28762;SDS011;15918;51.270;6.522;2023-04-06T14:03:00;13.25;;;9.35;;
28762;SDS011;15918;51.270;6.522;2023-04-06T14:05:26;11.30;;;8.30;;
28762;SDS011;15918;51.270;6.522;2023-04-06T14:07:56;12.63;;;8.93;;
28762;SDS011;15918;51.270;6.522;2023-04-06T14:10:22;11.05;;;8.60;;
28762;SDS011;15918;51.270;6.522;2023-04-06T14:12:48;11.30;;;8.32;;
28762;SDS011;15918;51.270;6.522;2023-04-06T14:15:14;13.52;;;8.60;;
28762;SDS011;15918;51.270;6.522;2023-04-06T14:17:40;12.68;;;8.80;;
28762;SDS011;15918;51.270;6.522;2023-04-06T14:20:06;10.98;;;8.95;;
28762;SDS011;15918;51.270;6.522;2023-04-06T14:22:32;12.20;;;9.48;;